createdAt,value
2019-01-28T00:02:15.801Z,94575.56
2019-01-28T00:04:46.267Z,94572.94
2019-01-28T00:07:16.589Z,94578.14
2019-01-28T00:09:46.785Z,94579.55
2019-01-28T00:12:17.010Z,94578.88
2019-01-28T00:14:47.366Z,94581.59
2019-01-28T00:17:17.751Z,94588.91
2019-01-28T00:19:47.996Z,94587.14
2019-01-28T00:22:18.129Z,94596.34
2019-01-28T00:24:48.575Z,94605.64
2019-01-28T00:27:18.904Z,94600.34
2019-01-28T00:29:49.118Z,94592.59
2019-01-28T00:32:19.458Z,94595.73
2019-01-28T00:34:49.710Z,94588.33
2019-01-28T00:37:19.885Z,94584.36
2019-01-28T00:39:50.245Z,94578.38
2019-01-28T00:42:20.576Z,94577.34
2019-01-28T00:44:50.807Z,94584.75
2019-01-28T00:47:21.062Z,94582.93
2019-01-28T00:49:51.326Z,94583.69
2019-01-28T00:52:21.645Z,94576.61
2019-01-28T00:54:51.878Z,94583.48
2019-01-28T00:57:22.108Z,94591.66
2019-01-28T00:59:52.774Z,94590.06
2019-01-28T01:02:23.127Z,94589.55
2019-01-28T01:04:53.296Z,94581.36
2019-01-28T01:07:24.088Z,94571.63
2019-01-28T01:09:54.403Z,94572.14
2019-01-28T01:12:24.759Z,94578.83
2019-01-28T01:14:54.987Z,94580.75
2019-01-28T01:17:25.108Z,94579.61
2019-01-28T01:19:55.427Z,94586.33
2019-01-28T01:22:25.735Z,94586.21
2019-01-28T01:24:55.870Z,94588.55
2019-01-28T01:27:26.118Z,94575.78
2019-01-28T01:29:56.451Z,94577.28
2019-01-28T01:32:26.682Z,94569.92
2019-01-28T01:34:57.032Z,94567.64
2019-01-28T01:37:27.244Z,94568.05
2019-01-28T01:39:57.564Z,94570.86
2019-01-28T01:42:27.883Z,94559.07
2019-01-28T01:44:58.119Z,94561.91
2019-01-28T01:47:28.342Z,94562.02
2019-01-28T01:49:58.699Z,94561.53
2019-01-28T01:52:28.940Z,94556.30
2019-01-28T01:54:59.266Z,94554.97
2019-01-28T01:57:29.623Z,94558.98
2019-01-28T01:59:59.802Z,94560.05
2019-01-28T02:02:33.488Z,94554.38
2019-01-28T02:05:02.405Z,94550.45
2019-01-28T02:07:32.763Z,94548.34
2019-01-28T02:10:02.977Z,94544.69
2019-01-28T02:12:33.209Z,94534.95
2019-01-28T02:15:03.549Z,94535.23
2019-01-28T02:17:33.846Z,94540.47
2019-01-28T02:20:04.100Z,94534.21
2019-01-28T02:22:34.408Z,94540.47
2019-01-28T02:25:04.767Z,94536.91
2019-01-28T02:27:35.101Z,94529.69
2019-01-28T02:30:05.775Z,94530.23
2019-01-28T02:32:35.994Z,94519.19
2019-01-28T02:35:07.238Z,94519.75
2019-01-28T02:37:37.492Z,94514.20
2019-01-28T02:40:10.829Z,94516.42
2019-01-28T02:42:41.262Z,94508.89
2019-01-28T02:45:12.330Z,94509.23
2019-01-28T02:47:42.582Z,94504.21
2019-01-28T02:50:15.385Z,94511.25
2019-01-28T02:52:45.722Z,94505.75
2019-01-28T02:55:17.731Z,94515.48
2019-01-28T02:57:48.492Z,94506.11
2019-01-28T03:00:21.186Z,94512.91
2019-01-28T03:02:51.734Z,94518.91
2019-01-28T03:05:22.319Z,94516.89
2019-01-28T03:07:52.709Z,94516.20
2019-01-28T03:10:23.981Z,94518.66
2019-01-28T03:12:54.198Z,94513.97
2019-01-28T03:15:25.030Z,94507.14
2019-01-28T03:17:55.360Z,94512.56
2019-01-28T03:20:25.586Z,94504.52
2019-01-28T03:22:55.808Z,94512.58
2019-01-28T03:25:26.139Z,94509.20
2019-01-28T03:27:56.488Z,94507.40
2019-01-28T03:30:26.734Z,94516.59
2019-01-28T03:32:56.962Z,94513.77
2019-01-28T03:35:27.273Z,94510.63
2019-01-28T03:37:57.640Z,94523.64
2019-01-28T03:40:27.882Z,94508.77
2019-01-28T03:42:58.135Z,94504.36
2019-01-28T03:45:28.473Z,94500.70
2019-01-28T03:47:58.788Z,94502.49
2019-01-28T03:50:29.008Z,94506.86
2019-01-28T03:52:59.518Z,94504.13
2019-01-28T03:55:29.727Z,94497.69
2019-01-28T03:58:00.450Z,94492.95
2019-01-28T04:00:31.539Z,94494.59
2019-01-28T04:03:02.519Z,94496.91
2019-01-28T04:05:32.789Z,94487.73
2019-01-28T04:08:03.411Z,94493.79
2019-01-28T04:10:34.694Z,94488.03
2019-01-28T04:13:06.183Z,94492.17
2019-01-28T04:15:37.235Z,94491.64
2019-01-28T04:18:07.888Z,94491.31
2019-01-28T04:20:38.833Z,94483.83
2019-01-28T04:23:09.873Z,94486.45
2019-01-28T04:25:40.712Z,94482.71
2019-01-28T04:28:11.300Z,94484.56
2019-01-28T04:30:42.273Z,94488.27
2019-01-28T04:33:12.810Z,94484.41
2019-01-28T04:35:43.720Z,94484.02
2019-01-28T04:38:14.680Z,94479.01
2019-01-28T04:40:45.301Z,94475.16
2019-01-28T04:43:15.973Z,94494.74
2019-01-28T04:45:46.796Z,94492.66
2019-01-28T04:48:17.499Z,94480.41
2019-01-28T04:50:48.167Z,94482.20
2019-01-28T04:53:18.662Z,94487.30
2019-01-28T04:55:49.721Z,94494.41
2019-01-28T04:58:20.519Z,94497.91
2019-01-28T05:00:51.169Z,94495.81
2019-01-28T05:03:21.960Z,94495.59
2019-01-28T05:05:52.979Z,94489.56
2019-01-28T05:08:23.985Z,94484.34
2019-01-28T05:10:54.641Z,94492.20
2019-01-28T05:13:25.764Z,94491.91
2019-01-28T05:15:56.395Z,94498.66
2019-01-28T05:18:27.059Z,94495.04
2019-01-28T05:20:58.290Z,94502.80
2019-01-28T05:23:29.646Z,94487.91
2019-01-28T05:26:00.372Z,94484.63
2019-01-28T05:28:31.013Z,94497.09
2019-01-28T05:31:02.040Z,94492.92
2019-01-28T05:33:33.125Z,94493.78
2019-01-28T05:36:03.787Z,94499.31
2019-01-28T05:38:34.664Z,94498.77
2019-01-28T05:41:05.504Z,94496.90
2019-01-28T05:43:36.538Z,94498.21
2019-01-28T05:46:07.366Z,94488.73
2019-01-28T05:48:38.259Z,94482.17
2019-01-28T05:51:09.022Z,94494.88
2019-01-28T05:53:39.548Z,94480.99
2019-01-28T05:56:10.186Z,94483.38
2019-01-28T05:58:41.139Z,94486.55
2019-01-28T06:01:11.763Z,94496.53
2019-01-28T06:03:42.396Z,94498.87
2019-01-28T06:06:13.553Z,94498.36
2019-01-28T06:08:44.457Z,94511.34
2019-01-28T06:11:15.088Z,94499.83
2019-01-28T06:13:45.719Z,94490.69
2019-01-28T06:16:16.565Z,94502.30
2019-01-28T06:18:47.533Z,94497.84
2019-01-28T06:21:18.288Z,94499.11
2019-01-28T06:23:48.967Z,94500.58
2019-01-28T06:26:20.114Z,94497.23
2019-01-28T06:28:51.099Z,94499.91
2019-01-28T06:31:22.081Z,94497.00
2019-01-28T06:33:52.617Z,94495.86
2019-01-28T06:36:23.690Z,94500.79
2019-01-28T06:38:54.698Z,94501.77
2019-01-28T06:41:25.402Z,94492.05
2019-01-28T06:43:56.039Z,94498.05
2019-01-28T06:46:27.278Z,94498.77
2019-01-28T06:48:57.908Z,94505.84
2019-01-28T06:51:28.771Z,94507.21
2019-01-28T06:53:59.390Z,94505.45
2019-01-28T06:56:30.681Z,94509.02
2019-01-28T06:59:01.432Z,94502.83
2019-01-28T07:01:32.229Z,94508.63
2019-01-28T07:04:02.580Z,94503.38
2019-01-28T07:06:33.393Z,94506.72
2019-01-28T07:09:06.082Z,94506.92
2019-01-28T07:11:36.809Z,94517.19
2019-01-28T07:14:07.957Z,94518.83
2019-01-28T07:16:38.685Z,94512.10
2019-01-28T07:19:09.375Z,94507.88
2019-01-28T07:21:40.378Z,94516.66
2019-01-28T07:24:11.132Z,94515.58
2019-01-28T07:26:41.900Z,94513.67
2019-01-28T07:29:12.843Z,94515.53
2019-01-28T07:31:43.714Z,94513.70
2019-01-28T07:34:15.170Z,94518.69
2019-01-28T07:36:45.848Z,94512.38
2019-01-28T07:39:16.411Z,94525.25
2019-01-28T07:41:47.120Z,94524.46
2019-01-28T07:44:17.876Z,94522.47
2019-01-28T07:46:48.500Z,94515.35
2019-01-28T07:49:19.165Z,94519.69
2019-01-28T07:51:50.557Z,94514.08
2019-01-28T07:54:21.082Z,94514.05
2019-01-28T07:56:51.950Z,94508.23
2019-01-28T07:59:22.679Z,94289.36
2019-01-28T08:01:53.529Z,94501.83
2019-01-28T08:04:24.283Z,94502.39
2019-01-28T08:06:59.554Z,94499.53
2019-01-28T08:09:28.020Z,94498.36
2019-01-28T08:11:58.738Z,94491.20
2019-01-28T08:14:29.413Z,94488.74
2019-01-28T08:17:00.125Z,94496.44
2019-01-28T08:19:31.448Z,94492.30
2019-01-28T08:22:02.209Z,94501.19
2019-01-28T08:24:32.788Z,94492.88
2019-01-28T08:27:03.707Z,94495.85
2019-01-28T08:29:35.056Z,94498.47
2019-01-28T08:32:06.087Z,94502.83
2019-01-28T08:34:37.127Z,94492.58
2019-01-28T08:37:07.953Z,94499.20
2019-01-28T08:39:38.503Z,94503.98
2019-01-28T08:42:09.446Z,94501.46
2019-01-28T08:44:40.596Z,94507.95
2019-01-28T08:47:11.154Z,94512.97
2019-01-28T08:49:41.932Z,94512.70
2019-01-28T08:52:13.192Z,94518.01
2019-01-28T08:54:43.936Z,94520.09
2019-01-28T08:57:14.545Z,94518.22
2019-01-28T08:59:45.178Z,94519.28
2019-01-28T09:02:16.441Z,94520.36
2019-01-28T09:04:47.471Z,94514.08
2019-01-28T09:07:18.301Z,94322.41
2019-01-28T09:09:49.047Z,94513.34
2019-01-28T09:12:19.821Z,94515.42
2019-01-28T09:14:51.131Z,94509.48
2019-01-28T09:17:22.002Z,94508.64
2019-01-28T09:19:52.684Z,94497.55
2019-01-28T09:22:23.667Z,94488.95
2019-01-28T09:24:54.680Z,94487.87
2019-01-28T09:27:25.390Z,94486.10
2019-01-28T09:29:55.838Z,94475.84
2019-01-28T09:32:26.872Z,94475.47
2019-01-28T09:34:57.781Z,94470.70
2019-01-28T09:37:28.508Z,94470.97
2019-01-28T09:39:59.285Z,94471.12
2019-01-28T09:42:30.304Z,94471.25
2019-01-28T09:45:01.260Z,94476.66
2019-01-28T09:47:31.873Z,94464.45
2019-01-28T09:50:02.464Z,94457.09
2019-01-28T09:52:33.470Z,94453.66
2019-01-28T09:55:04.311Z,94450.05
2019-01-28T09:57:35.642Z,94441.43
2019-01-28T10:00:11.715Z,94440.47
2019-01-28T10:02:42.300Z,94432.34
2019-01-28T10:05:13.338Z,94431.91
2019-01-28T10:07:44.210Z,94420.29
2019-01-28T10:10:16.710Z,94410.27
2019-01-28T10:12:47.406Z,94405.13
2019-01-28T10:15:19.724Z,94406.03
2019-01-28T10:17:50.699Z,94390.20
2019-01-28T10:20:23.886Z,94383.26
2019-01-28T10:22:54.886Z,94372.72
2019-01-28T10:25:25.976Z,94369.48
2019-01-28T10:27:56.643Z,94358.25
2019-01-28T10:30:30.303Z,94364.98
2019-01-28T10:33:01.159Z,94358.95
2019-01-28T10:35:33.142Z,94358.73
2019-01-28T10:38:03.747Z,94351.44
2019-01-28T10:40:35.332Z,94347.92
2019-01-28T10:43:07.052Z,94345.80
2019-01-28T10:45:38.047Z,94343.48
2019-01-28T10:48:09.679Z,94340.44
2019-01-28T10:50:41.041Z,94336.63
2019-01-28T10:53:11.467Z,94326.55
2019-01-28T10:55:41.878Z,94324.25
2019-01-28T10:58:12.098Z,94319.51
2019-01-28T11:00:48.301Z,94318.27
2019-01-28T11:03:21.113Z,94315.63
2019-01-28T11:05:51.859Z,94310.25
2019-01-28T11:08:22.105Z,94311.42
2019-01-28T11:10:52.344Z,94310.39
2019-01-28T11:13:22.866Z,94313.19
2019-01-28T11:15:53.146Z,94307.12
2019-01-28T11:18:28.943Z,94297.16
2019-01-28T11:20:59.630Z,94291.43
2019-01-28T11:23:29.916Z,94286.50
2019-01-28T11:26:01.358Z,94287.14
2019-01-28T11:28:31.766Z,94285.05
2019-01-28T11:31:10.224Z,94287.72
2019-01-28T11:33:40.683Z,94288.81
2019-01-28T11:36:12.634Z,94286.63
2019-01-28T11:38:43.011Z,94286.75
2019-01-28T11:41:13.702Z,94281.98
2019-01-28T11:43:43.911Z,94280.66
2019-01-28T11:46:14.169Z,94272.54
2019-01-28T11:48:44.520Z,94271.97
2019-01-28T11:51:14.916Z,94272.33
2019-01-28T11:53:45.163Z,94261.33
2019-01-28T11:56:15.396Z,94269.41
2019-01-28T11:58:45.727Z,94261.39
2019-01-28T12:01:29.512Z,94261.87
2019-01-28T12:03:59.693Z,94257.64
2019-01-28T12:06:29.934Z,94256.22
2019-01-28T12:09:00.349Z,94268.09
2019-01-28T12:11:30.699Z,94259.63
2019-01-28T12:14:01.409Z,94262.17
2019-01-28T12:16:31.941Z,94252.64
2019-01-28T12:19:02.756Z,94248.28
2019-01-28T12:21:33.630Z,94244.73
2019-01-28T12:24:04.512Z,94244.55
2019-01-28T12:26:35.087Z,94244.09
2019-01-28T12:29:06.546Z,94244.42
2019-01-28T12:31:37.704Z,94243.28
2019-01-28T12:34:08.328Z,94243.58
2019-01-28T12:36:39.647Z,94241.75
2019-01-28T12:39:10.796Z,94234.92
2019-01-28T12:41:41.660Z,94238.37
2019-01-28T12:44:12.241Z,94239.26
2019-01-28T12:46:43.501Z,94066.91
2019-01-28T12:49:21.731Z,94236.05
2019-01-28T12:51:46.715Z,94236.95
2019-01-28T12:54:17.552Z,94235.08
2019-01-28T12:56:47.928Z,94233.16
2019-01-28T12:59:18.619Z,94233.03
2019-01-28T13:01:49.347Z,94226.26
2019-01-28T13:04:20.710Z,94226.19
2019-01-28T13:06:51.731Z,94222.83
2019-01-28T13:09:22.405Z,94229.77
2019-01-28T13:11:53.197Z,94228.17
2019-01-28T13:14:24.323Z,94223.09
2019-01-28T13:16:55.065Z,94224.55
2019-01-28T13:19:30.265Z,94229.39
2019-01-28T13:21:58.368Z,94230.33
2019-01-28T13:24:29.199Z,94227.53
2019-01-28T13:27:00.592Z,94215.34
2019-01-28T13:29:31.668Z,94218.75
2019-01-28T13:32:02.746Z,94215.02
2019-01-28T13:34:33.262Z,94219.73
2019-01-28T13:37:03.838Z,94217.72
2019-01-28T13:39:34.869Z,94216.25
2019-01-28T13:42:05.544Z,94221.98
2019-01-28T13:44:36.360Z,94219.22
2019-01-28T13:47:07.219Z,94217.31
2019-01-28T13:49:38.616Z,94207.83
2019-01-28T13:52:09.652Z,94214.13
2019-01-28T13:54:40.476Z,94207.39
2019-01-28T13:57:11.546Z,94215.17
2019-01-28T13:59:42.139Z,94218.38
2019-01-28T14:02:12.993Z,94218.69
2019-01-28T14:04:43.667Z,94220.95
2019-01-28T14:07:14.901Z,94218.46
2019-01-28T14:09:45.482Z,94224.49
2019-01-28T14:12:16.119Z,94228.72
2019-01-28T14:14:47.088Z,94224.63
2019-01-28T14:17:18.304Z,94229.62
2019-01-28T14:19:48.737Z,94224.44
2019-01-28T14:22:19.306Z,94220.42
2019-01-28T14:24:50.579Z,94216.64
2019-01-28T14:27:21.646Z,94219.14
2019-01-28T14:29:52.178Z,94215.20
2019-01-28T14:32:23.073Z,94210.23
2019-01-28T14:34:54.184Z,94214.28
2019-01-28T14:37:24.582Z,94214.07
2019-01-28T14:39:55.835Z,94219.27
2019-01-28T14:42:26.675Z,94222.35
2019-01-28T14:44:57.325Z,94224.10
2019-01-28T14:47:28.144Z,94222.14
2019-01-28T14:49:59.268Z,94221.88
2019-01-28T14:52:30.407Z,94218.34
2019-01-28T14:55:01.365Z,94218.45
2019-01-28T14:57:32.611Z,94221.28
2019-01-28T15:00:03.545Z,94224.23
2019-01-28T15:02:34.500Z,94230.56
2019-01-28T15:05:05.544Z,94228.88
2019-01-28T15:07:36.593Z,94227.02
2019-01-28T15:10:08.746Z,94228.40
2019-01-28T15:12:44.314Z,94233.48
2019-01-28T15:15:15.079Z,94226.19
2019-01-28T15:17:45.925Z,94231.80
2019-01-28T15:20:17.010Z,94236.43
2019-01-28T15:22:48.152Z,94236.50
2019-01-28T15:25:19.225Z,94239.72
2019-01-28T15:27:50.520Z,94243.07
2019-01-28T15:30:23.950Z,94233.51
2019-01-28T15:32:55.188Z,94235.50
2019-01-28T15:35:26.409Z,94243.02
2019-01-28T15:37:57.023Z,94240.81
2019-01-28T15:40:32.104Z,94237.53
2019-01-28T15:43:03.030Z,94230.03
2019-01-28T15:45:36.277Z,94226.88
2019-01-28T15:48:07.471Z,94223.55
2019-01-28T15:50:38.511Z,94228.10
2019-01-28T15:53:09.993Z,94227.50
2019-01-28T15:55:43.036Z,94236.26
2019-01-28T15:58:14.870Z,94235.80
2019-01-28T16:00:46.723Z,94227.73
2019-01-28T16:03:17.867Z,94236.23
2019-01-28T16:05:48.581Z,94237.05
2019-01-28T16:08:19.554Z,94229.95
2019-01-28T16:10:50.700Z,94236.05
2019-01-28T16:13:21.185Z,94234.37
2019-01-28T16:15:53.415Z,94233.80
2019-01-28T16:18:24.229Z,94231.84
2019-01-28T16:20:55.175Z,94231.61
2019-01-28T16:23:26.187Z,94234.42
2019-01-28T16:25:57.109Z,94238.09
2019-01-28T16:28:28.296Z,94241.81
2019-01-28T16:30:59.761Z,94235.54
2019-01-28T16:33:30.326Z,94236.92
2019-01-28T16:36:01.510Z,94247.10
2019-01-28T16:38:32.744Z,94234.78
2019-01-28T16:41:03.835Z,94241.88
2019-01-28T16:43:34.671Z,94242.79
2019-01-28T16:46:05.899Z,94244.87
2019-01-28T16:48:37.165Z,94246.41
2019-01-28T16:51:08.263Z,94249.44
2019-01-28T16:53:39.319Z,94246.54
2019-01-28T16:56:10.357Z,94246.93
2019-01-28T16:58:41.293Z,94240.16
2019-01-28T17:01:12.210Z,94243.83
2019-01-28T17:03:43.494Z,94244.56
2019-01-28T17:06:14.648Z,94243.41
2019-01-28T17:08:45.761Z,94243.04
2019-01-28T17:11:16.558Z,94239.67
2019-01-28T17:13:47.431Z,94238.94
2019-01-28T17:16:18.181Z,94243.20
2019-01-28T17:18:49.396Z,94245.64
2019-01-28T17:21:20.546Z,94251.24
2019-01-28T17:23:51.304Z,94246.59
2019-01-28T17:26:22.234Z,94244.45
2019-01-28T17:28:53.281Z,94249.58
2019-01-28T17:31:24.152Z,94247.28
2019-01-28T17:33:54.850Z,94246.22
2019-01-28T17:36:25.969Z,94250.98
2019-01-28T17:38:57.338Z,94248.53
2019-01-28T17:41:28.256Z,94245.48
2019-01-28T17:43:59.629Z,94245.19
2019-01-28T17:46:31.456Z,94243.41
2019-01-28T17:49:02.642Z,94241.95
2019-01-28T17:51:34.228Z,94243.20
2019-01-28T17:54:05.334Z,94246.30
2019-01-28T17:56:36.781Z,94254.27
2019-01-28T17:59:07.738Z,94255.98
2019-01-28T18:01:39.460Z,94260.73
2019-01-28T18:04:10.631Z,94261.33
2019-01-28T18:06:42.541Z,94266.35
2019-01-28T18:09:15.350Z,94263.16
2019-01-28T18:11:46.312Z,94266.78
2019-01-28T18:14:17.625Z,94267.23
2019-01-28T18:16:48.687Z,94269.27
2019-01-28T18:19:19.894Z,94271.58
2019-01-28T18:21:51.270Z,94279.36
2019-01-28T18:24:22.307Z,94276.92
2019-01-28T18:26:53.546Z,94273.72
2019-01-28T18:29:24.709Z,94278.84
2019-01-28T18:31:58.613Z,94279.00
2019-01-28T18:34:29.620Z,94279.23
2019-01-28T18:37:01.205Z,94283.07
2019-01-28T18:39:32.124Z,94285.84
2019-01-28T18:42:03.283Z,94286.70
2019-01-28T18:44:34.360Z,94282.58
2019-01-28T18:47:05.707Z,94284.82
2019-01-28T18:49:36.930Z,94291.56
2019-01-28T18:52:08.001Z,94297.07
2019-01-28T18:54:39.366Z,94294.35
2019-01-28T18:57:13.424Z,94282.21
2019-01-28T18:59:44.263Z,94289.98
2019-01-28T19:02:15.151Z,94293.28
2019-01-28T19:04:46.000Z,94298.63
2019-01-28T19:07:42.262Z,94296.61
2019-01-28T19:10:24.738Z,94295.41
2019-01-28T19:13:14.306Z,94289.56
2019-01-28T19:16:07.507Z,94283.64
2019-01-28T19:18:45.713Z,94276.36
2019-01-28T19:21:28.326Z,94283.23
2019-01-28T19:23:59.904Z,94283.80
2019-01-28T19:26:31.062Z,94291.66
2019-01-28T19:29:04.560Z,94286.69
2019-01-28T19:31:35.921Z,94287.87
2019-01-28T19:34:07.160Z,94299.16
2019-01-28T19:36:39.200Z,94292.37
2019-01-28T19:39:11.051Z,94289.17
2019-01-28T19:41:42.188Z,94294.38
2019-01-28T19:44:13.451Z,94297.76
2019-01-28T19:46:44.746Z,94297.55
2019-01-28T19:49:15.994Z,94300.25
2019-01-28T19:51:47.509Z,94299.69
2019-01-28T19:54:18.310Z,94305.44
2019-01-28T19:56:49.675Z,94293.15
2019-01-28T19:59:20.420Z,94287.63
2019-01-28T20:01:51.787Z,94294.35
2019-01-28T20:04:22.614Z,94284.34
2019-01-28T20:06:53.536Z,94290.06
2019-01-28T20:09:25.115Z,94281.48
2019-01-28T20:11:56.268Z,94279.03
2019-01-28T20:14:27.781Z,94281.14
2019-01-28T20:16:58.701Z,94283.67
2019-01-28T20:19:30.244Z,94283.75
2019-01-28T20:22:01.737Z,94289.80
2019-01-28T20:24:33.059Z,94280.92
2019-01-28T20:27:04.516Z,94291.23
2019-01-28T20:29:35.656Z,94286.69
2019-01-28T20:32:28.043Z,94289.92
2019-01-28T20:35:07.057Z,94291.52
2019-01-28T20:37:38.347Z,94295.42
2019-01-28T20:40:11.005Z,94299.05
2019-01-28T20:42:42.123Z,94295.81
2019-01-28T20:45:15.423Z,94294.14
2019-01-28T20:47:46.300Z,94281.02
2019-01-28T20:50:25.067Z,94287.00
2019-01-28T20:52:55.895Z,94288.11
2019-01-28T20:55:27.114Z,94185.91
2019-01-28T20:57:58.008Z,94279.42
2019-01-28T21:00:28.881Z,94282.73
2019-01-28T21:02:59.874Z,94278.83
2019-01-28T21:05:30.964Z,94277.45
2019-01-28T21:08:02.118Z,94280.03
2019-01-28T21:10:33.187Z,94277.59
2019-01-28T21:13:03.711Z,94277.63
2019-01-28T21:15:35.068Z,94277.13
2019-01-28T21:18:06.256Z,94286.72
2019-01-28T21:20:37.422Z,94278.19
2019-01-28T21:23:08.755Z,94269.36
2019-01-28T21:25:40.016Z,94269.06
2019-01-28T21:28:11.172Z,94263.16
2019-01-28T21:30:42.284Z,94267.70
2019-01-28T21:33:13.611Z,94274.88
2019-01-28T21:36:12.629Z,94271.83
2019-01-28T21:38:46.948Z,94275.73
2019-01-28T21:41:18.190Z,94083.63
2019-01-28T21:43:49.022Z,94270.58
2019-01-28T21:46:20.688Z,94282.20
2019-01-28T21:48:51.864Z,94272.53
2019-01-28T21:51:23.374Z,94268.77
2019-01-28T21:53:54.521Z,94270.52
2019-01-28T21:56:24.970Z,94270.55
2019-01-28T21:58:56.460Z,94264.97
2019-01-28T22:01:27.437Z,94266.19
2019-01-28T22:03:58.278Z,94262.13
2019-01-28T22:06:29.408Z,94263.34
2019-01-28T22:09:00.251Z,94261.67
2019-01-28T22:11:31.290Z,94078.73
2019-01-28T22:14:04.780Z,94267.09
2019-01-28T22:16:35.774Z,94263.41
2019-01-28T22:19:06.970Z,94268.52
2019-01-28T22:21:37.980Z,94274.41
2019-01-28T22:24:08.942Z,94272.13
2019-01-28T22:26:39.672Z,94268.52
2019-01-28T22:29:10.384Z,94273.34
2019-01-28T22:31:41.649Z,94264.16
2019-01-28T22:34:12.483Z,94263.14
2019-01-28T22:36:43.387Z,94262.13
2019-01-28T22:39:14.800Z,94262.95
2019-01-28T22:41:45.708Z,94262.03
2019-01-28T22:44:16.559Z,94261.00
2019-01-28T22:46:47.588Z,94260.70
2019-01-28T22:49:18.640Z,94257.34
2019-01-28T22:51:49.515Z,94266.33
2019-01-28T22:54:20.629Z,94262.80
2019-01-28T22:56:51.654Z,94266.59
2019-01-28T22:59:22.767Z,94261.37
2019-01-28T23:01:53.760Z,94257.62
2019-01-28T23:04:24.855Z,94258.87
2019-01-28T23:06:55.888Z,94269.30
2019-01-28T23:09:27.052Z,94272.20
2019-01-28T23:11:57.949Z,94258.28
2019-01-28T23:14:29.157Z,94253.97
2019-01-28T23:17:00.016Z,94254.89
2019-01-28T23:19:30.752Z,94249.18
2019-01-28T23:22:01.962Z,94244.09
2019-01-28T23:24:32.898Z,94257.81
2019-01-28T23:27:03.619Z,94252.80
2019-01-28T23:29:34.660Z,94253.67
2019-01-28T23:32:05.604Z,94254.46
2019-01-28T23:34:36.629Z,94246.41
2019-01-28T23:37:07.790Z,94252.95
2019-01-28T23:39:38.782Z,94249.33
2019-01-28T23:42:09.309Z,94252.80
2019-01-28T23:44:40.398Z,94250.67
2019-01-28T23:47:11.231Z,94252.47
2019-01-28T23:49:42.297Z,94244.72
2019-01-28T23:52:13.429Z,94253.14
2019-01-28T23:54:44.347Z,94252.05
2019-01-28T23:57:15.178Z,94255.69
2019-01-28T23:59:46.060Z,94261.89
